Rijeka, Croatia

10:54 PM CEST on April 27, 2015 (GMT +0200)
Ruzic selo | | Change Station
CLOSE
Current Station
Personal Weather Station
Location: Hreljin, PRIMORJE-GORSKI KOTAR COUNTY
Elevation: 1175 ft
Nearby Weather Stations

Elev 1175 ft 45.28 °N, 14.61 °E | Updated 6 seconds ago

Mostly Cloudy
Mostly Cloudy
55.0 °F
Feels Like 55.0 °F
N
0.0
Wind Variable Wind from East
Gusts 0.0 mph

Today
High -- | Low -- °F
--% Chance of Precip.
Yesterday
High -- | Low -- °F
Precip. -- in
5:57 AM 8:02 PM
Waxing Gibbous, 67% visible
Pressure 29.68 in
Visibility 6.2 miles
Clouds Mostly Cloudy 2200 ft
Dew Point 51 °F
Humidity 86%
Rainfall 0.04 in
Snow Depth Not available.
UV 0 out of 12
Pollen Not available.
Air Quality Not available.
Flu Activity Not available.
METAR LDPL 272030Z 10005KT 070V140 9999 BKN022 14/13 Q1005 NOSIG

More Conditions Fewer Conditions

Pressure 29.68 in
Visibility 6.2 miles
Clouds Mostly Cloudy 2200 ft
Dew Point 51 °F
Humidity 86%
Rainfall 0.04 in
Snow Depth Not available.
UV 0 out of 12
Pollen Not available.
Air Quality Not available.
Flu Activity Not available.
METAR LDPL 272030Z 10005KT 070V140 9999 BKN022 14/13 Q1005 NOSIG

More Conditions Fewer Conditions

10-Day Weather Forecast

Almanac

Astronomy

Apr. 27, 2015 Rise Set
Actual Time
Civil Twilight
Nautical Twilight
Astronomical Twilight
Moon
Length of Visible Light
Length of Day
Tomorrow will be .
, % of the Moon is Illuminated

Today's Extremes

Country Highs Country Lows

Community

WunderPhotos

Upload Photos

1,817,421 photos uploaded!

WunderBlogs® & News

Nearby

Air Quality

  Air Quality AQ Index Pollutant
Not available.

Snow Depth

Station Depth Elevation

Earthquake Activity

City Distance Mag. Time & Date
Minimum magnitude displayed is 2.5.

Coastal Water Temperatures

Place Temperature

Stations

Nearby Weather Stations

Station Location Temp. Windchill Dew Point Humidity Wind Precip. Elev Updated Type